Ginga — JJ4054 — position and weather

sailwx.info

Track history (hours):
 
Tides and Currents Weather Stations Pressure Air Temp Water Temp Dewpoint Dewpoint Depression Visibility Wind Speed Wind Dir Waves Ship Positions

Ginga

Last reported at 2017-Mar-26 00:33 UTC. Time now 2017-Mar-26 09:23 UTC.
Position N 34°38' E 135°09'.

Length 28 m; draft 1.6 m.

Type: Other ship. MMSI: 431301704.

Date/timePositionNaut miles runAvg speedWind from/ knotsBaromVisibWave heightAir tempDewpointWater temp
2017-Mar-26 00:33N 34°38' E 135°09'6 6.3
2017-Mar-25 23:32N 34°37' E 135°01'7 7.6
2017-Mar-25 22:33N 34°39' E 135°10'1 0.5
2017-Mar-25 21:33N 34°39' E 135°09'3 0.3
2017-Mar-25 11:34N 34°36' E 135°09'12 5.6
2017-Mar-25 09:29N 34°25' E 135°05'1314.0
2017-Mar-25 08:33N 34°32' E 135°17'5 5.2
2017-Mar-25 07:31N 34°34' E 135°24'5 5.5
2017-Mar-25 06:33N 34°35' E 135°18'7 0.2
2017-Mar-24 00:33N 34°40' E 135°11'8 8.2
2017-Mar-23 23:33N 34°36' E 135°20'3 2.4
2017-Mar-23 22:20N 34°33' E 135°18'1013.4
2017-Mar-23 21:33N 34°27' E 135°08'1413.8
2017-Mar-23 20:32N 34°15' E 134°59'10 5.2
2017-Mar-23 18:33N 34°25' E 135°02'1515.4
2017-Mar-23 17:33N 34°39' E 135°10'1 0.1
2017-Mar-23 05:09N 34°39' E 135°09'611.0
2017-Mar-23 04:33N 34°36' E 135°03'2 0.9
2017-Mar-23 02:29N 34°37' E 135°01'6 6.9
2017-Mar-23 01:33N 34°36' E 135°09'3 3.3
2017-Mar-23 00:33N 34°39' E 135°09'2 0.0
2017-Mar-21 07:33N 34°37' E 135°09'14 6.7
2017-Mar-21 05:30N 34°25' E 135°02'1010.7
2017-Mar-21 04:33N 34°34' E 135°07'9 0.3
2017-Mar-19 17:33N 34°36' E 134°56'9 9.4
2017-Mar-19 16:33N 34°35' E 135°07'8 7.3
2017-Mar-19 15:31N 34°27' E 135°05'2 0.8
2017-Mar-19 12:33N 34°26' E 135°03'1414.4
2017-Mar-19 11:33N 34°39' E 135°10'3 0.1
2017-Mar-17 20:34N 34°37' E 135°07'2 2.4
2017-Mar-17 19:33N 34°36' E 135°04'4 4.4
2017-Mar-17 18:33N 34°37' E 135°09'2 0.2
2017-Mar-17 04:30N 34°39' E 135°09'9 6.0
2017-Mar-17 03:05N 34°38' E 134°59'3 0.6
2017-Mar-16 21:24N 34°38' E 135°03'1 1.4
2017-Mar-16 20:33N 34°37' E 135°02'7 6.8
2017-Mar-16 19:33N 34°35' E 135°10'4 4.3
2017-Mar-16 18:33N 34°39' E 135°09'6 0.4
2017-Mar-16 03:33N 34°35' E 135°05'6 6.1
2017-Mar-16 02:33N 34°37' E 134°59'9 9.1
2017-Mar-16 01:33N 34°39' E 135°09'  
Track history (hours):
 
Tides and Currents Weather Stations Pressure Air Temp Water Temp Dewpoint Dewpoint Depression Visibility Wind Speed Wind Dir Waves Ship Positions

Ginga

Last reported at 2017-Mar-26 00:33 UTC. Time now 2017-Mar-26 09:23 UTC.
Position N 34°38' E 135°09'.

Length 28 m; draft 1.6 m.

Type: Other ship. MMSI: 431301704.

Date/timePositionNaut miles runAvg speedWind from/ knotsBaromVisibWave heightAir tempDewpointWater temp
2017-Mar-26 00:33N 34°38' E 135°09'6 6.3
2017-Mar-25 23:32N 34°37' E 135°01'7 7.6
2017-Mar-25 22:33N 34°39' E 135°10'1 0.5
2017-Mar-25 21:33N 34°39' E 135°09'3 0.3
2017-Mar-25 11:34N 34°36' E 135°09'12 5.6
2017-Mar-25 09:29N 34°25' E 135°05'1314.0
2017-Mar-25 08:33N 34°32' E 135°17'5 5.2
2017-Mar-25 07:31N 34°34' E 135°24'5 5.5
2017-Mar-25 06:33N 34°35' E 135°18'7 0.2
2017-Mar-24 00:33N 34°40' E 135°11'8 8.2
2017-Mar-23 23:33N 34°36' E 135°20'3 2.4
2017-Mar-23 22:20N 34°33' E 135°18'1013.4
2017-Mar-23 21:33N 34°27' E 135°08'1413.8
2017-Mar-23 20:32N 34°15' E 134°59'10 5.2
2017-Mar-23 18:33N 34°25' E 135°02'1515.4
2017-Mar-23 17:33N 34°39' E 135°10'1 0.1
2017-Mar-23 05:09N 34°39' E 135°09'611.0
2017-Mar-23 04:33N 34°36' E 135°03'2 0.9
2017-Mar-23 02:29N 34°37' E 135°01'6 6.9
2017-Mar-23 01:33N 34°36' E 135°09'3 3.3
2017-Mar-23 00:33N 34°39' E 135°09'2 0.0
2017-Mar-21 07:33N 34°37' E 135°09'14 6.7
2017-Mar-21 05:30N 34°25' E 135°02'1010.7
2017-Mar-21 04:33N 34°34' E 135°07'9 0.3
2017-Mar-19 17:33N 34°36' E 134°56'9 9.4
2017-Mar-19 16:33N 34°35' E 135°07'8 7.3
2017-Mar-19 15:31N 34°27' E 135°05'2 0.8
2017-Mar-19 12:33N 34°26' E 135°03'1414.4
2017-Mar-19 11:33N 34°39' E 135°10'3 0.1
2017-Mar-17 20:34N 34°37' E 135°07'2 2.4
2017-Mar-17 19:33N 34°36' E 135°04'4 4.4
2017-Mar-17 18:33N 34°37' E 135°09'2 0.2
2017-Mar-17 04:30N 34°39' E 135°09'9 6.0
2017-Mar-17 03:05N 34°38' E 134°59'3 0.6
2017-Mar-16 21:24N 34°38' E 135°03'1 1.4
2017-Mar-16 20:33N 34°37' E 135°02'7 6.8
2017-Mar-16 19:33N 34°35' E 135°10'4 4.3
2017-Mar-16 18:33N 34°39' E 135°09'6 0.4
2017-Mar-16 03:33N 34°35' E 135°05'6 6.1
2017-Mar-16 02:33N 34°37' E 134°59'9 9.1
2017-Mar-16 01:33N 34°39' E 135°09'  

Dump ship's entire track history